Portada
METAR-TAF:

METAR-TAF

Aeropuertos :

Ghriss, Argelia

latitud: 35-12N, longitud: 000-08E, altitud: 514 m

Observación

El informe se hizo hace 38 minutos, a las 03:00 UTC
Viento 4 kt del oeste
Temperatura 10°C
Humedad 93%
Presión 1013 hPa
Visibilidad 10 km o más
Escasas nubes a una altura de 2600 ft

METAR: DAOV 160300Z 26004KT 9999 FEW026 10/09 Q1013

Hora: 04:38 (03:38 UTC)

Pronóstico

El informe se hizo hace 10 horas y 38 minutos, a las 17:00 UTC
Pronóstico válido del 15 a las 18 UTC al 16 a las 03 UTC
Viento 12 kt del norte
Visibilidad 10 km o más
Nubes dispersas a una altura de 2600 ft
Cielo nuboso a una altura de 10000 ft
Evolucionando progresivamente
del 15 a las 22 UTC al 15 a las 24 UTC
Viento 2 kt con dirección variable
Escasas nubes a una altura de 2600 ft, Cumulus congestus.

TAF: DAOV 151700Z 1518/1603 35012KT 9999 SCT026 BKN100 BECMG 1522/1524 VRB02KT FEW026TCU

Observaciones y pronósticos meteorológicos de más de 4000 aeropuertos (mensajes METAR y TAF).

Los puntos amarillos y rojos representan las estaciones disponibles.

Ponga el ratón en el punto deseado para ver el nombre de la estación.

Haga clic para ver las observaciones y los pronósticos meteorológicos.

Para cambiar el mapa : haga clic en los botones verdes con una cruz de color negro para hacer un zoom, en el botón verde con un guión para alejar o en las flechas verdes para mapas adyacentes.


METAR-TAF: